sensor_id;sensor_type;location;lat;lon;timestamp;pressure;altitude;pressure_sealevel;temperature;humidity
47763;BME280;33526;42.690;23.322;2024-03-06T00:00:31;94859.53;;;5.47;100.00
47763;BME280;33526;42.690;23.322;2024-03-06T00:02:58;94856.44;;;5.70;100.00
47763;BME280;33526;42.690;23.322;2024-03-06T00:05:23;94850.69;;;5.78;100.00
47763;BME280;33526;42.690;23.322;2024-03-06T00:07:48;94849.16;;;5.77;100.00
47763;BME280;33526;42.690;23.322;2024-03-06T00:10:14;94854.81;;;5.86;100.00
47763;BME280;33526;42.690;23.322;2024-03-06T00:12:39;94849.38;;;5.82;100.00
47763;BME280;33526;42.690;23.322;2024-03-06T00:15:05;94847.69;;;5.85;100.00
47763;BME280;33526;42.690;23.322;2024-03-06T00:17:31;94844.59;;;5.83;100.00
47763;BME280;33526;42.690;23.322;2024-03-06T00:19:56;94846.38;;;5.77;100.00
47763;BME280;33526;42.690;23.322;2024-03-06T00:22:21;94853.78;;;5.80;100.00
47763;BME280;33526;42.690;23.322;2024-03-06T00:24:47;94850.69;;;5.78;100.00
47763;BME280;33526;42.690;23.322;2024-03-06T00:27:13;94847.59;;;5.75;100.00
47763;BME280;33526;42.690;23.322;2024-03-06T00:29:38;94846.72;;;5.79;100.00
47763;BME280;33526;42.690;23.322;2024-03-06T00:32:04;94849.81;;;5.81;100.00
47763;BME280;33526;42.690;23.322;2024-03-06T00:34:29;94849.16;;;5.77;100.00
47763;BME280;33526;42.690;23.322;2024-03-06T00:36:55;94848.34;;;5.76;100.00
47763;BME280;33526;42.690;23.322;2024-03-06T00:39:20;94847.25;;;5.73;100.00
47763;BME280;33526;42.690;23.322;2024-03-06T00:41:45;94850.91;;;5.70;100.00
47763;BME280;33526;42.690;23.322;2024-03-06T00:44:11;94846.38;;;5.64;100.00
47763;BME280;33526;42.690;23.322;2024-03-06T00:46:36;94852.91;;;5.57;100.00
47763;BME280;33526;42.690;23.322;2024-03-06T00:49:01;94850.13;;;5.57;100.00
47763;BME280;33526;42.690;23.322;2024-03-06T00:51:27;94852.03;;;5.60;100.00
47763;BME280;33526;42.690;23.322;2024-03-06T00:53:52;94854.69;;;5.64;100.00
47763;BME280;33526;42.690;23.322;2024-03-06T00:56:17;94848.69;;;5.65;100.00
47763;BME280;33526;42.690;23.322;2024-03-06T00:58:43;94849.47;;;5.66;100.00
47763;BME280;33526;42.690;23.322;2024-03-06T01:01:08;94851.75;;;5.54;100.00
47763;BME280;33526;42.690;23.322;2024-03-06T01:03:33;94858.84;;;5.43;100.00
47763;BME280;33526;42.690;23.322;2024-03-06T01:05:59;94863.94;;;5.31;100.00
47763;BME280;33526;42.690;23.322;2024-03-06T01:08:24;94866.25;;;5.33;100.00
47763;BME280;33526;42.690;23.322;2024-03-06T01:10:53;94863.03;;;5.34;100.00
47763;BME280;33526;42.690;23.322;2024-03-06T01:13:19;94862.16;;;5.38;100.00
47763;BME280;33526;42.690;23.322;2024-03-06T01:15:45;94860.59;;;5.36;100.00
47763;BME280;33526;42.690;23.322;2024-03-06T01:18:10;94859.84;;;5.36;100.00
47763;BME280;33526;42.690;23.322;2024-03-06T01:20:35;94855.53;;;5.35;100.00
47763;BME280;33526;42.690;23.322;2024-03-06T01:23:01;94866.94;;;5.37;100.00
47763;BME280;33526;42.690;23.322;2024-03-06T01:25:26;94863.03;;;5.34;100.00
47763;BME280;33526;42.690;23.322;2024-03-06T01:27:51;94859.94;;;5.32;100.00
47763;BME280;33526;42.690;23.322;2024-03-06T01:30:17;94856.63;;;5.38;100.00
47763;BME280;33526;42.690;23.322;2024-03-06T01:32:42;94859.53;;;5.47;100.00
47763;BME280;33526;42.690;23.322;2024-03-06T01:35:07;94866.09;;;5.53;100.00
47763;BME280;33526;42.690;23.322;2024-03-06T01:37:33;94852.34;;;5.49;100.00
47763;BME280;33526;42.690;23.322;2024-03-06T01:39:58;94866.31;;;5.46;100.00
47763;BME280;33526;42.690;23.322;2024-03-06T01:42:24;94857.63;;;5.44;100.00
47763;BME280;33526;42.690;23.322;2024-03-06T01:44:49;94854.63;;;5.51;100.00
47763;BME280;33526;42.690;23.322;2024-03-06T01:47:14;94846.91;;;5.59;100.00
47763;BME280;33526;42.690;23.322;2024-03-06T01:49:40;94851.13;;;5.63;100.00
47763;BME280;33526;42.690;23.322;2024-03-06T01:52:05;94852.47;;;5.71;100.00
47763;BME280;33526;42.690;23.322;2024-03-06T01:54:31;94844.47;;;5.73;100.00
47763;BME280;33526;42.690;23.322;2024-03-06T01:56:57;94847.59;;;5.75;100.00
47763;BME280;33526;42.690;23.322;2024-03-06T01:59:22;94857.16;;;5.74;100.00
47763;BME280;33526;42.690;23.322;2024-03-06T02:01:52;94858.03;;;5.71;100.00
47763;BME280;33526;42.690;23.322;2024-03-06T02:04:18;94857.69;;;5.69;100.00
47763;BME280;33526;42.690;23.322;2024-03-06T02:06:44;94859.78;;;5.65;100.00
47763;BME280;33526;42.690;23.322;2024-03-06T02:09:09;94864.44;;;5.68;100.00
47763;BME280;33526;42.690;23.322;2024-03-06T02:11:35;94859.78;;;5.65;100.00
47763;BME280;33526;42.690;23.322;2024-03-06T02:14:01;94862.31;;;5.60;100.00
47763;BME280;33526;42.690;23.322;2024-03-06T02:16:26;94866.22;;;5.62;100.00
47763;BME280;33526;42.690;23.322;2024-03-06T02:18:55;94875.28;;;5.50;100.00
47763;BME280;33526;42.690;23.322;2024-03-06T02:21:22;94883.03;;;5.42;100.00
47763;BME280;33526;42.690;23.322;2024-03-06T02:23:48;94881.44;;;4.99;100.00
47763;BME280;33526;42.690;23.322;2024-03-06T02:26:13;94872.22;;;4.73;100.00
47763;BME280;33526;42.690;23.322;2024-03-06T02:28:39;94875.00;;;4.73;100.00
47763;BME280;33526;42.690;23.322;2024-03-06T02:31:04;94884.53;;;4.55;100.00
47763;BME280;33526;42.690;23.322;2024-03-06T02:33:31;94892.75;;;4.59;100.00
47763;BME280;33526;42.690;23.322;2024-03-06T02:35:58;94889.91;;;4.46;100.00
47763;BME280;33526;42.690;23.322;2024-03-06T02:38:23;94896.31;;;4.43;100.00
47763;BME280;33526;42.690;23.322;2024-03-06T02:40:50;94898.56;;;4.48;100.00
47763;BME280;33526;42.690;23.322;2024-03-06T02:43:15;94906.44;;;4.50;100.00
47763;BME280;33526;42.690;23.322;2024-03-06T02:45:40;94903.56;;;4.37;100.00
47763;BME280;33526;42.690;23.322;2024-03-06T02:48:06;94898.72;;;4.41;100.00
47763;BME280;33526;42.690;23.322;2024-03-06T02:50:31;94895.09;;;4.28;100.00
47763;BME280;33526;42.690;23.322;2024-03-06T02:52:57;94892.16;;;4.18;100.00
47763;BME280;33526;42.690;23.322;2024-03-06T02:55:22;94888.53;;;4.21;100.00
47763;BME280;33526;42.690;23.322;2024-03-06T02:57:49;94879.00;;;4.06;100.00
47763;BME280;33526;42.690;23.322;2024-03-06T03:00:14;94894.19;;;3.98;100.00
47763;BME280;33526;42.690;23.322;2024-03-06T03:02:41;94898.50;;;3.82;100.00
47763;BME280;33526;42.690;23.322;2024-03-06T03:05:06;94895.63;;;3.70;100.00
47763;BME280;33526;42.690;23.322;2024-03-06T03:07:32;94891.72;;;3.67;100.00
47763;BME280;33526;42.690;23.322;2024-03-06T03:09:59;94892.44;;;3.71;100.00
47763;BME280;33526;42.690;23.322;2024-03-06T03:12:25;94904.03;;;3.82;100.00
47763;BME280;33526;42.690;23.322;2024-03-06T03:14:50;94898.34;;;3.90;100.00
47763;BME280;33526;42.690;23.322;2024-03-06T03:17:17;94898.19;;;3.97;100.00
47763;BME280;33526;42.690;23.322;2024-03-06T03:19:44;94903.91;;;4.06;100.00
47763;BME280;33526;42.690;23.322;2024-03-06T03:22:09;94906.50;;;4.13;100.00
47763;BME280;33526;42.690;23.322;2024-03-06T03:24:35;94893.69;;;4.19;100.00
47763;BME280;33526;42.690;23.322;2024-03-06T03:27:02;94903.22;;;4.18;100.00
47763;BME280;33526;42.690;23.322;2024-03-06T03:29:27;94909.38;;;4.26;100.00
47763;BME280;33526;42.690;23.322;2024-03-06T03:31:52;94913.97;;;4.33;100.00
47763;BME280;33526;42.690;23.322;2024-03-06T03:34:18;94912.22;;;4.39;100.00
47763;BME280;33526;42.690;23.322;2024-03-06T03:36:43;94909.47;;;4.39;100.00
47763;BME280;33526;42.690;23.322;2024-03-06T03:39:11;94905.91;;;4.38;100.00
47763;BME280;33526;42.690;23.322;2024-03-06T03:41:47;94905.22;;;4.34;100.00
47763;BME280;33526;42.690;23.322;2024-03-06T03:44:13;94908.50;;;4.29;100.00
47763;BME280;33526;42.690;23.322;2024-03-06T03:46:39;94905.56;;;4.36;100.00
47763;BME280;33526;42.690;23.322;2024-03-06T03:49:04;94903.06;;;4.42;100.00
47763;BME280;33526;42.690;23.322;2024-03-06T03:51:31;94906.09;;;4.48;100.00
47763;BME280;33526;42.690;23.322;2024-03-06T03:53:56;94914.31;;;4.51;100.00
47763;BME280;33526;42.690;23.322;2024-03-06T03:56:21;94912.06;;;4.46;100.00
47763;BME280;33526;42.690;23.322;2024-03-06T03:58:47;94909.72;;;4.45;100.00
47763;BME280;33526;42.690;23.322;2024-03-06T04:01:12;94912.06;;;4.46;100.00
47763;BME280;33526;42.690;23.322;2024-03-06T04:03:37;94914.56;;;4.40;100.00
47763;BME280;33526;42.690;23.322;2024-03-06T04:06:03;94920.78;;;4.45;100.00
47763;BME280;33526;42.690;23.322;2024-03-06T04:08:29;94916.91;;;4.42;100.00
47763;BME280;33526;42.690;23.322;2024-03-06T04:10:54;94912.06;;;4.46;100.00
47763;BME280;33526;42.690;23.322;2024-03-06T04:13:19;94918.38;;;4.47;100.00
47763;BME280;33526;42.690;23.322;2024-03-06T04:15:45;94922.34;;;4.46;100.00
47763;BME280;33526;42.690;23.322;2024-03-06T04:18:11;94935.25;;;4.36;100.00
47763;BME280;33526;42.690;23.322;2024-03-06T04:20:36;94926.56;;;4.34;100.00
47763;BME280;33526;42.690;23.322;2024-03-06T04:23:01;94940.41;;;4.34;100.00
47763;BME280;33526;42.690;23.322;2024-03-06T04:25:27;94940.78;;;4.36;100.00
47763;BME280;33526;42.690;23.322;2024-03-06T04:27:53;94937.66;;;4.34;100.00
47763;BME280;33526;42.690;23.322;2024-03-06T04:30:18;94951.16;;;4.32;100.00
47763;BME280;33526;42.690;23.322;2024-03-06T04:32:44;94947.88;;;4.37;100.00
47763;BME280;33526;42.690;23.322;2024-03-06T04:35:09;94948.03;;;4.30;100.00
47763;BME280;33526;42.690;23.322;2024-03-06T04:37:36;94955.13;;;4.31;100.00
47763;BME280;33526;42.690;23.322;2024-03-06T04:40:03;94953.47;;;4.33;100.00
47763;BME280;33526;42.690;23.322;2024-03-06T04:42:32;94956.25;;;4.33;100.00
47763;BME280;33526;42.690;23.322;2024-03-06T04:44:58;94948.72;;;4.34;100.00
47763;BME280;33526;42.690;23.322;2024-03-06T04:47:24;94952.72;;;4.33;100.00
47763;BME280;33526;42.690;23.322;2024-03-06T04:49:49;94966.72;;;4.26;100.00
47763;BME280;33526;42.690;23.322;2024-03-06T04:52:17;94960.19;;;4.16;100.00
47763;BME280;33526;42.690;23.322;2024-03-06T04:54:43;94959.16;;;4.10;100.00
47763;BME280;33526;42.690;23.322;2024-03-06T04:57:09;94967.53;;;4.06;100.00
47763;BME280;33526;42.690;23.322;2024-03-06T04:59:37;94962.16;;;3.99;100.00
47763;BME280;33526;42.690;23.322;2024-03-06T05:02:02;94962.16;;;3.99;100.00
47763;BME280;33526;42.690;23.322;2024-03-06T05:04:29;94958.03;;;4.07;100.00
47763;BME280;33526;42.690;23.322;2024-03-06T05:06:54;94970.56;;;4.12;100.00
47763;BME280;33526;42.690;23.322;2024-03-06T05:09:21;94971.19;;;4.19;100.00
47763;BME280;33526;42.690;23.322;2024-03-06T05:11:46;94972.25;;;4.26;100.00
47763;BME280;33526;42.690;23.322;2024-03-06T05:14:11;94968.47;;;4.36;100.00
47763;BME280;33526;42.690;23.322;2024-03-06T05:16:36;94965.97;;;4.42;100.00
47763;BME280;33526;42.690;23.322;2024-03-06T05:19:02;94970.19;;;4.46;100.00
47763;BME280;33526;42.690;23.322;2024-03-06T05:21:27;94970.28;;;4.59;100.00
47763;BME280;33526;42.690;23.322;2024-03-06T05:23:53;94973.69;;;4.67;100.00
47763;BME280;33526;42.690;23.322;2024-03-06T05:26:19;94970.03;;;4.70;100.00
47763;BME280;33526;42.690;23.322;2024-03-06T05:28:44;94963.28;;;4.87;100.00
47763;BME280;33526;42.690;23.322;2024-03-06T05:31:16;94964.75;;;4.92;100.00
47763;BME280;33526;42.690;23.322;2024-03-06T05:33:46;94979.78;;;5.07;100.00
47763;BME280;33526;42.690;23.322;2024-03-06T05:36:12;94972.34;;;5.21;100.00
47763;BME280;33526;42.690;23.322;2024-03-06T05:38:40;94982.09;;;5.25;100.00
47763;BME280;33526;42.690;23.322;2024-03-06T05:41:06;94980.72;;;5.33;100.00
47763;BME280;33526;42.690;23.322;2024-03-06T05:43:31;94978.66;;;5.21;100.00
47763;BME280;33526;42.690;23.322;2024-03-06T05:45:57;94987.84;;;5.18;100.00
47763;BME280;33526;42.690;23.322;2024-03-06T05:48:22;94983.50;;;5.33;100.00
47763;BME280;33526;42.690;23.322;2024-03-06T05:50:49;94988.75;;;5.44;100.00
47763;BME280;33526;42.690;23.322;2024-03-06T05:53:14;94987.56;;;5.58;100.00
47763;BME280;33526;42.690;23.322;2024-03-06T05:55:39;94997.25;;;5.66;100.00
47763;BME280;33526;42.690;23.322;2024-03-06T05:58:05;94995.16;;;5.70;100.00
47763;BME280;33526;42.690;23.322;2024-03-06T06:00:30;94994.63;;;5.75;100.00
47763;BME280;33526;42.690;23.322;2024-03-06T06:02:56;95003.41;;;5.87;100.00
47763;BME280;33526;42.690;23.322;2024-03-06T06:05:21;94999.78;;;5.90;100.00
47763;BME280;33526;42.690;23.322;2024-03-06T06:07:48;94999.16;;;5.99;100.00
47763;BME280;33526;42.690;23.322;2024-03-06T06:10:13;95004.88;;;5.91;100.00
47763;BME280;33526;42.690;23.322;2024-03-06T06:12:38;94993.16;;;6.00;100.00
47763;BME280;33526;42.690;23.322;2024-03-06T06:15:04;95008.28;;;6.12;100.00
47763;BME280;33526;42.690;23.322;2024-03-06T06:17:29;95015.38;;;6.00;100.00
47763;BME280;33526;42.690;23.322;2024-03-06T06:19:54;95011.25;;;5.75;100.00
47763;BME280;33526;42.690;23.322;2024-03-06T06:22:20;95006.38;;;5.80;100.00
47763;BME280;33526;42.690;23.322;2024-03-06T06:24:45;95002.06;;;5.79;100.00
47763;BME280;33526;42.690;23.322;2024-03-06T06:27:11;95005.19;;;5.81;100.00
47763;BME280;33526;42.690;23.322;2024-03-06T06:29:36;95001.22;;;5.65;100.00
47763;BME280;33526;42.690;23.322;2024-03-06T06:32:02;95006.19;;;5.87;100.00
47763;BME280;33526;42.690;23.322;2024-03-06T06:34:27;95002.53;;;5.90;100.00
47763;BME280;33526;42.690;23.322;2024-03-06T06:36:53;94998.84;;;6.09;100.00
47763;BME280;33526;42.690;23.322;2024-03-06T06:39:18;95002.63;;;6.16;100.00
47763;BME280;33526;42.690;23.322;2024-03-06T06:41:43;94998.75;;;6.26;100.00
47763;BME280;33526;42.690;23.322;2024-03-06T06:44:09;95002.19;;;6.30;100.00
47763;BME280;33526;42.690;23.322;2024-03-06T06:46:34;94999.91;;;6.41;100.00
47763;BME280;33526;42.690;23.322;2024-03-06T06:48:59;95003.56;;;6.38;100.00
47763;BME280;33526;42.690;23.322;2024-03-06T06:51:25;95008.88;;;6.20;100.00
47763;BME280;33526;42.690;23.322;2024-03-06T06:53:50;95004.66;;;6.28;100.00
47763;BME280;33526;42.690;23.322;2024-03-06T06:56:15;95004.97;;;6.30;100.00
47763;BME280;33526;42.690;23.322;2024-03-06T06:58:41;95009.31;;;6.18;100.00
47763;BME280;33526;42.690;23.322;2024-03-06T07:01:08;95018.59;;;5.99;100.00
47763;BME280;33526;42.690;23.322;2024-03-06T07:03:33;95022.56;;;5.98;100.00
47763;BME280;33526;42.690;23.322;2024-03-06T07:05:58;95017.38;;;6.00;100.00
47763;BME280;33526;42.690;23.322;2024-03-06T07:08:24;95016.09;;;5.59;100.00
47763;BME280;33526;42.690;23.322;2024-03-06T07:10:49;95026.94;;;5.53;100.00
47763;BME280;33526;42.690;23.322;2024-03-06T07:13:15;95020.34;;;5.47;100.00
47763;BME280;33526;42.690;23.322;2024-03-06T07:15:41;95022.63;;;5.35;100.00
47763;BME280;33526;42.690;23.322;2024-03-06T07:18:07;95022.00;;;5.15;100.00
47763;BME280;33526;42.690;23.322;2024-03-06T07:20:32;95013.47;;;5.06;100.00
47763;BME280;33526;42.690;23.322;2024-03-06T07:22:57;95010.38;;;4.87;100.00
47763;BME280;33526;42.690;23.322;2024-03-06T07:25:23;95009.69;;;5.00;100.00
47763;BME280;33526;42.690;23.322;2024-03-06T07:27:48;95015.03;;;5.23;100.00
47763;BME280;33526;42.690;23.322;2024-03-06T07:30:14;95022.06;;;5.57;100.00
47763;BME280;33526;42.690;23.322;2024-03-06T07:32:39;95012.03;;;5.76;100.00
47763;BME280;33526;42.690;23.322;2024-03-06T07:35:05;95009.38;;;5.72;100.00
47763;BME280;33526;42.690;23.322;2024-03-06T07:37:31;95010.81;;;6.06;100.00
47763;BME280;33526;42.690;23.322;2024-03-06T07:39:56;95015.53;;;6.35;100.00
47763;BME280;33526;42.690;23.322;2024-03-06T07:42:23;95006.22;;;6.55;100.00
47763;BME280;33526;42.690;23.322;2024-03-06T07:44:48;95004.13;;;6.84;100.00
47763;BME280;33526;42.690;23.322;2024-03-06T07:47:15;95007.88;;;6.91;100.00
47763;BME280;33526;42.690;23.322;2024-03-06T07:49:40;95011.88;;;6.77;100.00
47763;BME280;33526;42.690;23.322;2024-03-06T07:52:05;95010.03;;;6.74;100.00
47763;BME280;33526;42.690;23.322;2024-03-06T07:54:31;95013.56;;;6.74;100.00
47763;BME280;33526;42.690;23.322;2024-03-06T07:56:58;95008.25;;;6.67;100.00
47763;BME280;33526;42.690;23.322;2024-03-06T07:59:23;95007.03;;;6.81;100.00
47763;BME280;33526;42.690;23.322;2024-03-06T08:01:48;95012.00;;;6.99;100.00
47763;BME280;33526;42.690;23.322;2024-03-06T08:04:14;95004.00;;;6.75;100.00
47763;BME280;33526;42.690;23.322;2024-03-06T08:06:39;95004.47;;;6.86;100.00
47763;BME280;33526;42.690;23.322;2024-03-06T08:09:05;95007.13;;;6.77;100.00
47763;BME280;33526;42.690;23.322;2024-03-06T08:11:31;95015.91;;;6.63;100.00
47763;BME280;33526;42.690;23.322;2024-03-06T08:13:58;95015.56;;;6.86;100.00
47763;BME280;33526;42.690;23.322;2024-03-06T08:16:24;95020.22;;;6.64;100.00
47763;BME280;33526;42.690;23.322;2024-03-06T08:18:49;95017.13;;;6.87;100.00
47763;BME280;33526;42.690;23.322;2024-03-06T08:21:14;95014.81;;;7.34;100.00
47763;BME280;33526;42.690;23.322;2024-03-06T08:23:40;95013.97;;;7.59;100.00
47763;BME280;33526;42.690;23.322;2024-03-06T08:26:05;95018.41;;;7.69;100.00
47763;BME280;33526;42.690;23.322;2024-03-06T08:28:30;95010.16;;;7.65;100.00
47763;BME280;33526;42.690;23.322;2024-03-06T08:30:56;95015.84;;;7.62;100.00
47763;BME280;33526;42.690;23.322;2024-03-06T08:33:21;95015.94;;;7.71;100.00
47763;BME280;33526;42.690;23.322;2024-03-06T08:35:47;95010.69;;;7.95;100.00
47763;BME280;33526;42.690;23.322;2024-03-06T08:38:13;95012.31;;;8.06;100.00
47763;BME280;33526;42.690;23.322;2024-03-06T08:40:39;95011.22;;;8.25;100.00
47763;BME280;33526;42.690;23.322;2024-03-06T08:43:06;95010.13;;;8.45;100.00
47763;BME280;33526;42.690;23.322;2024-03-06T08:45:31;95017.03;;;8.71;100.00
47763;BME280;33526;42.690;23.322;2024-03-06T08:47:56;95009.44;;;8.63;100.00
47763;BME280;33526;42.690;23.322;2024-03-06T08:50:22;95015.25;;;8.87;100.00
47763;BME280;33526;42.690;23.322;2024-03-06T08:52:47;95015.59;;;8.98;100.00
47763;BME280;33526;42.690;23.322;2024-03-06T08:55:12;95012.75;;;8.79;100.00
47763;BME280;33526;42.690;23.322;2024-03-06T08:57:38;95010.97;;;8.64;100.00
47763;BME280;33526;42.690;23.322;2024-03-06T09:00:05;95015.84;;;8.82;100.00
47763;BME280;33526;42.690;23.322;2024-03-06T09:02:35;95020.09;;;8.95;100.00
47763;BME280;33526;42.690;23.322;2024-03-06T09:05:00;95005.59;;;9.19;100.00
47763;BME280;33526;42.690;23.322;2024-03-06T09:07:29;95015.34;;;9.24;99.35
47763;BME280;33526;42.690;23.322;2024-03-06T09:09:55;95011.31;;;9.15;98.16
47763;BME280;33526;42.690;23.322;2024-03-06T09:12:20;95013.81;;;9.23;97.17
47763;BME280;33526;42.690;23.322;2024-03-06T09:14:45;95008.84;;;9.27;95.23
47763;BME280;33526;42.690;23.322;2024-03-06T09:17:11;95015.97;;;9.09;94.64
47763;BME280;33526;42.690;23.322;2024-03-06T09:19:39;95013.34;;;9.24;90.28
47763;BME280;33526;42.690;23.322;2024-03-06T09:22:05;95008.28;;;9.50;90.35
47763;BME280;33526;42.690;23.322;2024-03-06T09:24:30;95000.41;;;9.58;90.42
47763;BME280;33526;42.690;23.322;2024-03-06T09:26:56;95004.56;;;9.81;87.30
47763;BME280;33526;42.690;23.322;2024-03-06T09:29:21;94992.16;;;9.91;85.64
47763;BME280;33526;42.690;23.322;2024-03-06T09:31:47;94993.06;;;10.25;82.92
47763;BME280;33526;42.690;23.322;2024-03-06T09:34:15;94995.88;;;10.16;81.24
47763;BME280;33526;42.690;23.322;2024-03-06T09:36:41;94999.31;;;10.02;82.55
47763;BME280;33526;42.690;23.322;2024-03-06T09:39:10;94995.56;;;10.14;81.02
47763;BME280;33526;42.690;23.322;2024-03-06T09:41:36;94995.25;;;10.12;81.17
47763;BME280;33526;42.690;23.322;2024-03-06T09:44:01;94998.66;;;10.35;76.89
47763;BME280;33526;42.690;23.322;2024-03-06T09:46:27;94994.09;;;10.56;74.56
47763;BME280;33526;42.690;23.322;2024-03-06T09:48:54;94991.38;;;10.80;73.50
47763;BME280;33526;42.690;23.322;2024-03-06T09:51:19;94983.28;;;10.82;71.79
47763;BME280;33526;42.690;23.322;2024-03-06T09:53:46;94986.03;;;10.91;72.69
47763;BME280;33526;42.690;23.322;2024-03-06T09:56:14;94981.63;;;10.75;70.88
47763;BME280;33526;42.690;23.322;2024-03-06T09:58:40;94978.81;;;10.75;72.32
47763;BME280;33526;42.690;23.322;2024-03-06T10:01:05;94982.69;;;11.11;68.95
47763;BME280;33526;42.690;23.322;2024-03-06T10:03:36;94975.13;;;11.26;65.84
47763;BME280;33526;42.690;23.322;2024-03-06T10:06:02;94860.22;;;10.58;63.47
47763;BME280;33526;42.690;23.322;2024-03-06T10:08:27;94969.94;;;11.34;65.60
47763;BME280;33526;42.690;23.322;2024-03-06T10:10:53;94958.34;;;11.51;64.04
47763;BME280;33526;42.690;23.322;2024-03-06T10:13:18;94965.03;;;11.68;63.76
47763;BME280;33526;42.690;23.322;2024-03-06T10:18:28;94964.13;;;11.47;61.73
47763;BME280;33526;42.690;23.322;2024-03-06T10:20:54;94959.69;;;11.55;61.88
47763;BME280;33526;42.690;23.322;2024-03-06T10:23:20;94951.84;;;11.83;59.51
47763;BME280;33526;42.690;23.322;2024-03-06T10:25:48;94961.97;;;12.05;58.65
47763;BME280;33526;42.690;23.322;2024-03-06T10:28:20;94954.44;;;12.11;57.60
47763;BME280;33526;42.690;23.322;2024-03-06T10:30:47;94954.22;;;12.00;56.64
47763;BME280;33526;42.690;23.322;2024-03-06T10:33:13;94951.25;;;12.03;57.15
47763;BME280;33526;42.690;23.322;2024-03-06T10:35:43;94937.31;;;12.24;56.98
47763;BME280;33526;42.690;23.322;2024-03-06T10:38:10;94943.22;;;12.41;57.49
47763;BME280;33526;42.690;23.322;2024-03-06T10:40:38;94936.66;;;12.59;55.55
47763;BME280;33526;42.690;23.322;2024-03-06T10:43:04;94945.50;;;12.72;55.89
47763;BME280;33526;42.690;23.322;2024-03-06T10:45:41;94931.13;;;12.65;54.74
47763;BME280;33526;42.690;23.322;2024-03-06T10:48:10;94936.84;;;12.55;55.07
47763;BME280;33526;42.690;23.322;2024-03-06T10:50:41;94924.81;;;12.70;54.69
47763;BME280;33526;42.690;23.322;2024-03-06T10:53:13;94925.91;;;13.08;53.35
47763;BME280;33526;42.690;23.322;2024-03-06T10:55:39;94919.63;;;13.33;52.47
47763;BME280;33526;42.690;23.322;2024-03-06T10:58:05;94913.59;;;13.41;52.14
47763;BME280;33526;42.690;23.322;2024-03-06T11:00:33;94903.91;;;13.42;52.10
47763;BME280;33526;42.690;23.322;2024-03-06T11:03:00;94903.72;;;13.30;52.50
47763;BME280;33526;42.690;23.322;2024-03-06T11:05:28;94903.91;;;13.42;51.52
47763;BME280;33526;42.690;23.322;2024-03-06T11:07:54;94893.50;;;13.27;51.75
47763;BME280;33526;42.690;23.322;2024-03-06T11:10:32;94899.69;;;13.31;51.94
47763;BME280;33526;42.690;23.322;2024-03-06T11:12:58;94878.91;;;13.44;50.77
47763;BME280;33526;42.690;23.322;2024-03-06T11:15:23;94885.19;;;13.59;50.15
47763;BME280;33526;42.690;23.322;2024-03-06T11:17:49;94875.53;;;13.60;50.30
47763;BME280;33526;42.690;23.322;2024-03-06T11:20:17;94869.03;;;13.74;50.05
47763;BME280;33526;42.690;23.322;2024-03-06T11:28:09;94862.88;;;13.70;48.66
47763;BME280;33526;42.690;23.322;2024-03-06T11:30:35;94865.69;;;13.50;49.30
47763;BME280;33526;42.690;23.322;2024-03-06T11:33:11;94853.63;;;13.44;48.73
47763;BME280;33526;42.690;23.322;2024-03-06T11:35:37;94855.09;;;13.18;47.86
47763;BME280;33526;42.690;23.322;2024-03-06T11:38:05;94849.56;;;13.24;47.73
47763;BME280;33526;42.690;23.322;2024-03-06T11:40:31;94852.09;;;13.22;47.93
47763;BME280;33526;42.690;23.322;2024-03-06T11:42:57;94850.69;;;13.53;48.32
47763;BME280;33526;42.690;23.322;2024-03-06T11:45:22;94850.13;;;13.49;47.70
47763;BME280;33526;42.690;23.322;2024-03-06T11:48:02;94851.91;;;13.72;46.90
47763;BME280;33526;42.690;23.322;2024-03-06T11:50:28;94846.03;;;13.70;46.76
47763;BME280;33526;42.690;23.322;2024-03-06T11:52:55;94851.03;;;13.87;46.73
47763;BME280;33526;42.690;23.322;2024-03-06T11:55:21;94845.88;;;14.11;45.94
47763;BME280;33526;42.690;23.322;2024-03-06T11:57:46;94842.47;;;14.28;45.00
47763;BME280;33526;42.690;23.322;2024-03-06T12:00:12;94836.19;;;14.12;45.66
47763;BME280;33526;42.690;23.322;2024-03-06T12:02:37;94832.28;;;14.36;44.23
47763;BME280;33526;42.690;23.322;2024-03-06T12:05:03;94831.56;;;14.41;43.18
47763;BME280;33526;42.690;23.322;2024-03-06T12:07:30;94835.19;;;14.53;44.13
47763;BME280;33526;42.690;23.322;2024-03-06T12:09:57;94831.91;;;14.92;43.80
47763;BME280;33526;42.690;23.322;2024-03-06T12:12:23;94822.00;;;15.08;42.58
47763;BME280;33526;42.690;23.322;2024-03-06T12:14:55;94827.16;;;15.15;42.21
47763;BME280;33526;42.690;23.322;2024-03-06T12:17:22;94816.66;;;15.16;42.11
47763;BME280;33526;42.690;23.322;2024-03-06T12:19:47;94818.75;;;15.26;42.42
47763;BME280;33526;42.690;23.322;2024-03-06T12:22:14;94820.28;;;15.27;42.32
47763;BME280;33526;42.690;23.322;2024-03-06T12:24:40;94816.91;;;15.12;42.51
47763;BME280;33526;42.690;23.322;2024-03-06T12:27:07;94819.56;;;15.33;42.60
47763;BME280;33526;42.690;23.322;2024-03-06T12:29:34;94807.84;;;15.62;42.47
47763;BME280;33526;42.690;23.322;2024-03-06T12:32:00;94807.84;;;15.62;41.57
47763;BME280;33526;42.690;23.322;2024-03-06T12:34:26;94810.88;;;15.42;40.79
47763;BME280;33526;42.690;23.322;2024-03-06T12:36:52;94825.78;;;14.94;43.20
47763;BME280;33526;42.690;23.322;2024-03-06T12:39:17;94826.97;;;14.12;49.48
47763;BME280;33526;42.690;23.322;2024-03-06T12:41:51;94811.38;;;13.32;52.85
47763;BME280;33526;42.690;23.322;2024-03-06T12:44:18;94803.81;;;12.97;54.80
47763;BME280;33526;42.690;23.322;2024-03-06T12:46:44;94816.06;;;12.79;56.69
47763;BME280;33526;42.690;23.322;2024-03-06T12:49:10;94816.97;;;12.71;57.22
47763;BME280;33526;42.690;23.322;2024-03-06T12:51:35;94814.13;;;12.86;57.23